Time;durP1;ratioP1;P1;durP2;ratioP2;P2;SDS_P1;SDS_P2;PMS_P1;PMS_P2;Temp;Humidity;BMP_temperature;BMP_pressure;BME280_temperature;BME280_humidity;BME280_pressure;Samples;Min_cycle;Max_cycle;Signal;HPM_P1;HPM_P2
2021/03/29 00:00:11;;;;;;;5.90;3.63;;;;;;;;;;5011402;28;20451;-51
2021/03/29 00:02:37;;;;;;;6.00;3.90;;;;;;;;;;5011567;28;20482;-51
2021/03/29 00:05:03;;;;;;;10.20;3.37;;;;;;;;;;5011447;28;20490;-50
2021/03/29 00:07:30;;;;;;;6.90;3.67;;;;;;;;;;5011357;28;20564;-51
2021/03/29 00:09:57;;;;;;;8.17;4.33;;;;;;;;;;5011340;28;20407;-51
2021/03/29 00:12:24;;;;;;;9.50;3.83;;;;;;;;;;5011282;28;20837;-51
2021/03/29 00:14:51;;;;;;;10.83;4.20;;;;;;;;;;5010261;28;20542;-52
2021/03/29 00:17:17;;;;;;;7.50;3.60;;;;;;;;;;5011366;28;20496;-51
2021/03/29 00:19:43;;;;;;;10.57;3.87;;;;;;;;;;5010902;28;20455;-52
2021/03/29 00:22:09;;;;;;;8.83;4.40;;;;;;;;;;5010887;28;20425;-51
2021/03/29 00:24:35;;;;;;;11.80;4.10;;;;;;;;;;5011200;28;20744;-51
2021/03/29 00:27:02;;;;;;;7.33;3.73;;;;;;;;;;5011109;28;20409;-51
2021/03/29 00:29:28;;;;;;;10.30;4.03;;;;;;;;;;5010948;28;20593;-50
2021/03/29 00:31:54;;;;;;;6.77;3.70;;;;;;;;;;5011017;28;21085;-51
2021/03/29 00:34:20;;;;;;;11.73;4.00;;;;;;;;;;5011104;28;20417;-53
2021/03/29 00:36:47;;;;;;;7.67;3.70;;;;;;;;;;5010990;28;20415;-51
2021/03/29 00:39:14;;;;;;;7.70;4.13;;;;;;;;;;5009666;28;20429;-52
2021/03/29 00:41:40;;;;;;;11.30;3.70;;;;;;;;;;5010798;28;20448;-51
2021/03/29 00:44:07;;;;;;;8.97;3.87;;;;;;;;;;5010878;28;20473;-51
2021/03/29 00:46:33;;;;;;;7.47;3.70;;;;;;;;;;5010872;28;20458;-51
2021/03/29 00:49:00;;;;;;;11.43;3.97;;;;;;;;;;5010717;28;20418;-51
2021/03/29 00:51:28;;;;;;;7.40;3.67;;;;;;;;;;5011353;28;20492;-52
2021/03/29 00:53:57;;;;;;;7.30;3.90;;;;;;;;;;5010920;28;20482;-51
2021/03/29 00:56:23;;;;;;;10.07;3.50;;;;;;;;;;5010856;28;20459;-53
2021/03/29 00:58:50;;;;;;;5.90;3.03;;;;;;;;;;5010524;28;20403;-51
2021/03/29 01:01:23;;;;;;;12.90;4.13;;;;;;;;;;5010274;28;20524;-51
2021/03/29 01:03:50;;;;;;;7.70;3.70;;;;;;;;;;5010014;28;20461;-50
2021/03/29 01:06:18;;;;;;;9.27;4.20;;;;;;;;;;5009489;28;20455;-51
2021/03/29 01:08:47;;;;;;;9.50;3.60;;;;;;;;;;5010502;28;21232;-50
2021/03/29 01:11:16;;;;;;;5.47;3.77;;;;;;;;;;5010575;28;20987;-50
2021/03/29 01:13:49;;;;;;;10.00;3.97;;;;;;;;;;5010484;28;20417;-50
2021/03/29 01:16:16;;;;;;;6.77;4.30;;;;;;;;;;5010732;28;20413;-50
2021/03/29 01:18:44;;;;;;;7.17;3.80;;;;;;;;;;5010466;28;20493;-51
2021/03/29 01:21:25;;;;;;;7.73;4.10;;;;;;;;;;5010530;28;20465;-51
2021/03/29 01:23:52;;;;;;;6.97;3.80;;;;;;;;;;5010610;28;20413;-50
2021/03/29 01:26:35;;;;;;;11.00;5.07;;;;;;;;;;5010477;28;20405;-51
2021/03/29 01:29:02;;;;;;;8.60;4.00;;;;;;;;;;5010234;28;20403;-54
2021/03/29 01:31:28;;;;;;;12.03;4.40;;;;;;;;;;5009461;28;20467;-53
2021/03/29 01:33:55;;;;;;;9.70;3.93;;;;;;;;;;5012337;28;20506;-53
2021/03/29 01:36:21;;;;;;;14.67;5.30;;;;;;;;;;5014248;28;20411;-51
2021/03/29 01:38:48;;;;;;;9.00;4.13;;;;;;;;;;5013983;28;20405;-50
2021/03/29 01:41:14;;;;;;;8.30;4.33;;;;;;;;;;5013910;28;20476;-53
2021/03/29 01:43:41;;;;;;;8.53;4.43;;;;;;;;;;5014096;28;20771;-51
2021/03/29 01:46:08;;;;;;;9.33;4.20;;;;;;;;;;5014161;28;20400;-50
2021/03/29 01:48:34;;;;;;;10.93;4.37;;;;;;;;;;5013933;28;20407;-53
2021/03/29 01:51:00;;;;;;;8.97;4.40;;;;;;;;;;5013921;28;20458;-50
2021/03/29 01:53:27;;;;;;;9.63;4.40;;;;;;;;;;5013977;28;20411;-50
2021/03/29 01:55:54;;;;;;;7.90;3.90;;;;;;;;;;5013824;28;20829;-50
2021/03/29 01:58:21;;;;;;;12.20;4.20;;;;;;;;;;5012706;28;20514;-55
2021/03/29 02:00:49;;;;;;;13.80;4.60;;;;;;;;;;5013589;28;20458;-52
2021/03/29 02:03:16;;;;;;;10.17;4.00;;;;;;;;;;5013746;28;20407;-51
2021/03/29 02:05:42;;;;;;;10.43;4.20;;;;;;;;;;5013579;28;20396;-50
2021/03/29 02:08:08;;;;;;;9.67;4.33;;;;;;;;;;5013377;28;20928;-50
2021/03/29 02:10:39;;;;;;;7.90;4.23;;;;;;;;;;5013571;28;20402;-50
2021/03/29 02:13:06;;;;;;;11.20;4.00;;;;;;;;;;5013459;28;20459;-53
2021/03/29 02:15:32;;;;;;;11.50;4.00;;;;;;;;;;5013614;28;20412;-50
2021/03/29 02:18:04;;;;;;;9.27;4.00;;;;;;;;;;5013248;28;20450;-50
2021/03/29 02:20:32;;;;;;;8.53;4.50;;;;;;;;;;5013277;28;20451;-50
2021/03/29 02:22:59;;;;;;;12.27;4.40;;;;;;;;;;5012151;28;20454;-50
2021/03/29 02:25:27;;;;;;;9.10;4.37;;;;;;;;;;5013321;28;20407;-52
2021/03/29 02:27:53;;;;;;;14.07;5.57;;;;;;;;;;5013128;28;20501;-52
2021/03/29 02:30:25;;;;;;;9.73;4.70;;;;;;;;;;5013241;28;20398;-51
2021/03/29 02:32:51;;;;;;;6.67;3.57;;;;;;;;;;5012964;28;20423;-51
2021/03/29 02:35:19;;;;;;;7.20;3.87;;;;;;;;;;5013219;28;20411;-50
2021/03/29 02:37:47;;;;;;;13.57;5.03;;;;;;;;;;5012825;28;21117;-53
2021/03/29 02:40:13;;;;;;;10.20;4.50;;;;;;;;;;5011615;28;20451;-50
2021/03/29 02:42:40;;;;;;;11.43;4.50;;;;;;;;;;5012743;28;20885;-54
2021/03/29 02:45:08;;;;;;;7.07;3.70;;;;;;;;;;5012418;28;20396;-51
2021/03/29 02:47:34;;;;;;;11.13;4.13;;;;;;;;;;5011795;28;20404;-50
2021/03/29 02:50:01;;;;;;;7.83;3.90;;;;;;;;;;5012567;28;20466;-50
2021/03/29 02:52:28;;;;;;;4.97;3.60;;;;;;;;;;5012729;28;20431;-50
2021/03/29 02:54:55;;;;;;;8.20;4.00;;;;;;;;;;5012642;28;20889;-51
2021/03/29 02:57:21;;;;;;;15.70;5.20;;;;;;;;;;5012540;28;20407;-53
2021/03/29 02:59:47;;;;;;;10.77;3.80;;;;;;;;;;5012467;28;20867;-51
2021/03/29 03:02:13;;;;;;;6.03;3.40;;;;;;;;;;5012457;28;20471;-53
2021/03/29 03:04:39;;;;;;;11.33;4.10;;;;;;;;;;5012520;28;20399;-50
2021/03/29 03:07:06;;;;;;;5.70;3.40;;;;;;;;;;5012559;28;20453;-50
2021/03/29 03:09:33;;;;;;;5.70;3.50;;;;;;;;;;5012137;28;20442;-51
2021/03/29 03:11:59;;;;;;;8.73;4.63;;;;;;;;;;5012427;28;20427;-50
2021/03/29 03:14:25;;;;;;;7.33;3.60;;;;;;;;;;5011290;28;20436;-50
2021/03/29 03:16:51;;;;;;;8.47;3.70;;;;;;;;;;5012351;28;20414;-53
2021/03/29 03:19:19;;;;;;;6.30;3.53;;;;;;;;;;5012043;28;20920;-50
2021/03/29 03:21:45;;;;;;;9.50;3.70;;;;;;;;;;5012155;28;20911;-51
2021/03/29 03:24:11;;;;;;;10.07;3.90;;;;;;;;;;5012235;28;20437;-51
2021/03/29 03:26:37;;;;;;;5.50;3.30;;;;;;;;;;5012107;28;20410;-51
2021/03/29 03:29:04;;;;;;;13.10;3.93;;;;;;;;;;5011921;28;20431;-51
2021/03/29 03:31:29;;;;;;;7.80;3.53;;;;;;;;;;5012244;28;20431;-51
2021/03/29 03:33:55;;;;;;;8.20;3.70;;;;;;;;;;5012133;28;20403;-50
2021/03/29 03:36:23;;;;;;;10.40;3.60;;;;;;;;;;5012003;28;20411;-50
2021/03/29 03:38:50;;;;;;;6.63;3.10;;;;;;;;;;5011795;28;20827;-51
2021/03/29 03:41:18;;;;;;;13.60;3.80;;;;;;;;;;5009464;28;20471;-50
2021/03/29 03:43:52;;;;;;;8.23;3.47;;;;;;;;;;5011867;28;20926;-54
2021/03/29 03:46:18;;;;;;;8.00;3.83;;;;;;;;;;5011763;28;20495;-50
2021/03/29 03:48:44;;;;;;;19.33;3.67;;;;;;;;;;5011564;28;20431;-50
2021/03/29 03:51:11;;;;;;;10.27;3.87;;;;;;;;;;5011786;28;20462;-50
2021/03/29 03:53:37;;;;;;;9.13;3.67;;;;;;;;;;5011684;28;20403;-50
2021/03/29 03:56:03;;;;;;;7.63;3.30;;;;;;;;;;5011507;28;20444;-55
2021/03/29 03:58:30;;;;;;;7.47;3.20;;;;;;;;;;5010749;28;20438;-51
2021/03/29 04:00:56;;;;;;;14.20;2.87;;;;;;;;;;5011580;28;20947;-50
2021/03/29 04:03:26;;;;;;;6.23;3.63;;;;;;;;;;5011580;28;20399;-50
2021/03/29 04:05:53;;;;;;;9.23;3.10;;;;;;;;;;5010757;28;20794;-50
2021/03/29 04:08:19;;;;;;;5.00;3.10;;;;;;;;;;5011297;28;20410;-50
2021/03/29 04:10:55;;;;;;;8.50;3.50;;;;;;;;;;5011522;28;20408;-51
2021/03/29 04:13:29;;;;;;;6.73;3.40;;;;;;;;;;5011608;28;20442;-56
2021/03/29 04:15:56;;;;;;;6.57;3.50;;;;;;;;;;5011637;28;20411;-50
2021/03/29 04:18:22;;;;;;;3.47;2.77;;;;;;;;;;5011180;28;20911;-51
2021/03/29 04:20:49;;;;;;;6.70;3.57;;;;;;;;;;5011184;28;20456;-50
2021/03/29 04:23:15;;;;;;;6.03;3.23;;;;;;;;;;5011182;28;20454;-50
2021/03/29 04:25:41;;;;;;;6.60;3.30;;;;;;;;;;5011285;28;20803;-50
2021/03/29 04:28:07;;;;;;;12.63;3.77;;;;;;;;;;5011118;28;20489;-50
2021/03/29 04:30:33;;;;;;;8.87;3.60;;;;;;;;;;5010160;28;20490;-50
2021/03/29 04:32:59;;;;;;;7.73;2.80;;;;;;;;;;5009888;28;20930;-50
2021/03/29 04:35:25;;;;;;;9.27;3.60;;;;;;;;;;5011055;28;20421;-50
2021/03/29 04:37:52;;;;;;;12.00;3.30;;;;;;;;;;5010787;28;20403;-50
2021/03/29 04:40:19;;;;;;;8.57;3.40;;;;;;;;;;5010886;28;20457;-52
2021/03/29 04:42:45;;;;;;;6.97;3.77;;;;;;;;;;5011157;28;20832;-50
2021/03/29 04:45:12;;;;;;;7.07;3.07;;;;;;;;;;5010929;28;20422;-52
2021/03/29 04:47:38;;;;;;;9.73;3.33;;;;;;;;;;5010895;28;20450;-50
2021/03/29 04:50:05;;;;;;;10.87;3.80;;;;;;;;;;5009547;28;20411;-50
2021/03/29 04:52:31;;;;;;;10.17;3.57;;;;;;;;;;5010756;28;20438;-51
2021/03/29 04:54:57;;;;;;;9.13;3.57;;;;;;;;;;5010772;28;20403;-53
2021/03/29 04:57:23;;;;;;;4.17;2.83;;;;;;;;;;5009597;28;20569;-53
2021/03/29 04:59:49;;;;;;;4.63;3.13;;;;;;;;;;5010662;28;20549;-50
2021/03/29 05:02:15;;;;;;;5.93;4.10;;;;;;;;;;5010807;28;20416;-51
2021/03/29 05:04:41;;;;;;;13.20;3.50;;;;;;;;;;5010777;28;20406;-50
2021/03/29 05:07:08;;;;;;;10.47;3.60;;;;;;;;;;5010609;28;20403;-50
2021/03/29 05:09:34;;;;;;;6.70;3.30;;;;;;;;;;5013787;28;20537;-53
2021/03/29 05:12:07;;;;;;;7.13;2.63;;;;;;;;;;5014548;28;20422;-53
2021/03/29 05:14:33;;;;;;;6.33;3.30;;;;;;;;;;5014677;28;20404;-50
2021/03/29 05:16:59;;;;;;;7.63;3.33;;;;;;;;;;5014578;28;20482;-50
2021/03/29 05:19:25;;;;;;;7.20;3.27;;;;;;;;;;5014203;28;20490;-51
2021/03/29 05:21:51;;;;;;;7.63;3.40;;;;;;;;;;5014347;28;20424;-51
2021/03/29 05:24:17;;;;;;;11.73;3.87;;;;;;;;;;5013456;28;20428;-52
2021/03/29 05:26:43;;;;;;;9.33;3.40;;;;;;;;;;5014237;28;20393;-53
2021/03/29 05:29:09;;;;;;;8.60;3.60;;;;;;;;;;5014177;28;20423;-50
2021/03/29 05:31:40;;;;;;;6.40;3.10;;;;;;;;;;5014232;28;20423;-50
2021/03/29 05:34:06;;;;;;;8.03;3.37;;;;;;;;;;5014371;28;20398;-50
2021/03/29 05:36:32;;;;;;;9.90;3.30;;;;;;;;;;5014205;28;21173;-50
2021/03/29 05:38:58;;;;;;;7.77;2.67;;;;;;;;;;5013998;28;20411;-50
2021/03/29 05:41:24;;;;;;;10.57;3.90;;;;;;;;;;5013930;28;20862;-50
2021/03/29 05:43:51;;;;;;;7.13;3.20;;;;;;;;;;5014102;28;20414;-50
2021/03/29 05:46:17;;;;;;;7.43;3.50;;;;;;;;;;5014178;28;20403;-50
2021/03/29 05:48:43;;;;;;;5.63;3.37;;;;;;;;;;5012728;28;20445;-50
2021/03/29 05:51:09;;;;;;;9.83;3.30;;;;;;;;;;5013911;28;20425;-50
2021/03/29 05:53:35;;;;;;;7.40;3.50;;;;;;;;;;5013914;28;20896;-51
2021/03/29 05:56:01;;;;;;;8.10;3.10;;;;;;;;;;5013953;28;20818;-50
2021/03/29 06:00:54;;;;;;;6.23;2.80;;;;;;;;;;5013712;28;20451;-53
2021/03/29 06:03:23;;;;;;;7.50;2.70;;;;;;;;;;5013381;28;20407;-50
2021/03/29 06:05:51;;;;;;;5.87;2.90;;;;;;;;;;5013040;28;20407;-50
2021/03/29 06:08:17;;;;;;;7.00;3.27;;;;;;;;;;5012888;28;20757;-50
2021/03/29 06:10:44;;;;;;;7.20;3.53;;;;;;;;;;5013031;28;20374;-50
2021/03/29 06:13:14;;;;;;;12.77;5.10;;;;;;;;;;5013253;28;20415;-53
2021/03/29 06:15:41;;;;;;;9.00;3.10;;;;;;;;;;5011953;28;20444;-54
2021/03/29 06:18:16;;;;;;;6.40;3.30;;;;;;;;;;5012803;28;20498;-53
2021/03/29 06:21:02;;;;;;;14.00;3.60;;;;;;;;;;5011741;28;20454;-53
2021/03/29 06:23:28;;;;;;;6.83;3.27;;;;;;;;;;5013139;28;20493;-51
2021/03/29 06:26:14;;;;;;;8.53;3.37;;;;;;;;;;5013360;28;20407;-50
2021/03/29 06:28:40;;;;;;;5.07;3.13;;;;;;;;;;5002787;28;20862;-53
2021/03/29 06:31:25;;;;;;;10.93;3.77;;;;;;;;;;5012877;28;20423;-50
2021/03/29 06:33:51;;;;;;;9.93;3.73;;;;;;;;;;5013057;28;20445;-53
2021/03/29 06:36:28;;;;;;;10.13;3.20;;;;;;;;;;5012884;28;20423;-51
2021/03/29 06:38:54;;;;;;;6.93;3.20;;;;;;;;;;5005459;28;20477;-50
2021/03/29 06:41:28;;;;;;;6.30;3.40;;;;;;;;;;5011167;28;20919;-50
2021/03/29 06:43:54;;;;;;;12.63;3.27;;;;;;;;;;5012688;28;20962;-50
2021/03/29 06:46:22;;;;;;;6.87;3.00;;;;;;;;;;5012840;28;20407;-53
2021/03/29 06:48:48;;;;;;;2.70;2.30;;;;;;;;;;5011292;28;20401;-53
2021/03/29 06:51:16;;;;;;;6.73;3.67;;;;;;;;;;5011866;28;20432;-53
2021/03/29 06:53:42;;;;;;;11.37;3.33;;;;;;;;;;5012826;28;20413;-53
2021/03/29 06:56:22;;;;;;;5.97;3.47;;;;;;;;;;5012643;28;20406;-53
2021/03/29 06:58:48;;;;;;;5.97;3.10;;;;;;;;;;5012498;28;20406;-53
2021/03/29 07:01:25;;;;;;;10.50;2.87;;;;;;;;;;5012513;28;20465;-53
2021/03/29 07:03:51;;;;;;;5.80;3.23;;;;;;;;;;5012576;28;20468;-53
2021/03/29 07:06:18;;;;;;;4.30;3.00;;;;;;;;;;5011682;28;20481;-53
2021/03/29 07:08:45;;;;;;;11.53;3.80;;;;;;;;;;5012220;28;20883;-53
2021/03/29 07:11:13;;;;;;;9.27;2.97;;;;;;;;;;5012503;28;20419;-53
2021/03/29 07:13:40;;;;;;;11.03;3.43;;;;;;;;;;5012455;28;20415;-53
2021/03/29 07:16:07;;;;;;;9.63;2.97;;;;;;;;;;5012385;28;20411;-53
2021/03/29 07:18:33;;;;;;;5.90;2.70;;;;;;;;;;5011930;28;20423;-53
2021/03/29 07:21:00;;;;;;;10.57;3.07;;;;;;;;;;5012289;28;20459;-53
2021/03/29 07:23:26;;;;;;;9.03;3.70;;;;;;;;;;5012230;28;20393;-54
2021/03/29 07:25:52;;;;;;;4.80;3.00;;;;;;;;;;5012257;28;20378;-53
2021/03/29 07:28:20;;;;;;;9.90;2.60;;;;;;;;;;5012099;28;20399;-53
2021/03/29 07:30:50;;;;;;;6.40;3.30;;;;;;;;;;5011919;28;20457;-53
2021/03/29 07:33:17;;;;;;;8.60;2.90;;;;;;;;;;5011752;28;20397;-54
2021/03/29 07:35:46;;;;;;;4.27;2.90;;;;;;;;;;5011997;28;20506;-54
2021/03/29 07:38:12;;;;;;;5.13;2.40;;;;;;;;;;5011581;28;20381;-54
2021/03/29 07:40:41;;;;;;;4.67;2.60;;;;;;;;;;5011926;28;20455;-53
2021/03/29 07:43:09;;;;;;;8.13;2.70;;;;;;;;;;5011771;28;20451;-53
2021/03/29 07:45:35;;;;;;;6.93;3.30;;;;;;;;;;5011706;28;20947;-53
2021/03/29 07:48:01;;;;;;;8.73;3.27;;;;;;;;;;5011731;28;20411;-51
2021/03/29 07:50:27;;;;;;;6.27;2.90;;;;;;;;;;5011818;28;20752;-52
2021/03/29 07:53:00;;;;;;;9.90;3.73;;;;;;;;;;5011731;28;20401;-51
2021/03/29 07:55:27;;;;;;;10.20;3.30;;;;;;;;;;5011731;28;20901;-52
2021/03/29 07:57:53;;;;;;;8.40;3.00;;;;;;;;;;5010452;28;20458;-52
2021/03/29 08:00:25;;;;;;;12.30;3.03;;;;;;;;;;5011436;28;20461;-52
2021/03/29 08:02:51;;;;;;;8.53;2.70;;;;;;;;;;5011439;28;20427;-52
2021/03/29 08:05:36;;;;;;;7.97;2.73;;;;;;;;;;5011481;28;20403;-52
2021/03/29 08:08:05;;;;;;;5.33;2.60;;;;;;;;;;5011395;28;20921;-52
2021/03/29 08:10:50;;;;;;;6.80;2.67;;;;;;;;;;5011316;28;20410;-52
2021/03/29 08:13:35;;;;;;;10.13;2.40;;;;;;;;;;5011464;28;20408;-52
2021/03/29 08:16:01;;;;;;;7.93;3.20;;;;;;;;;;5011354;28;20469;-52
2021/03/29 08:18:27;;;;;;;5.07;2.47;;;;;;;;;;5011125;28;20407;-52
2021/03/29 08:20:54;;;;;;;7.97;2.67;;;;;;;;;;5010981;28;20447;-52
2021/03/29 08:23:38;;;;;;;9.67;2.53;;;;;;;;;;5009598;28;20460;-52
2021/03/29 08:26:14;;;;;;;7.07;2.90;;;;;;;;;;5011121;28;20399;-52
2021/03/29 08:28:59;;;;;;;3.90;2.43;;;;;;;;;;5009934;28;20470;-52
2021/03/29 08:31:45;;;;;;;11.73;3.40;;;;;;;;;;4996124;28;20506;-52
2021/03/29 08:34:11;;;;;;;4.27;2.23;;;;;;;;;;5008545;28;20498;-52
2021/03/29 08:36:38;;;;;;;6.00;2.10;;;;;;;;;;5008355;28;21074;-52
2021/03/29 08:39:07;;;;;;;4.50;3.00;;;;;;;;;;4993759;28;20430;-52
2021/03/29 08:41:33;;;;;;;7.10;3.00;;;;;;;;;;5001505;28;20931;-52
2021/03/29 08:43:59;;;;;;;7.80;2.60;;;;;;;;;;5004366;28;20435;-52
2021/03/29 08:46:26;;;;;;;5.77;2.80;;;;;;;;;;5001660;28;20406;-52
2021/03/29 08:48:52;;;;;;;5.07;2.70;;;;;;;;;;4998415;28;20423;-52
2021/03/29 08:51:22;;;;;;;3.67;2.27;;;;;;;;;;4997807;28;20438;-52
2021/03/29 08:54:03;;;;;;;7.70;3.00;;;;;;;;;;4996482;28;20915;-51
2021/03/29 08:56:42;;;;;;;13.33;3.57;;;;;;;;;;4991088;28;20423;-52
2021/03/29 08:59:09;;;;;;;4.83;2.20;;;;;;;;;;4991139;28;20410;-52
2021/03/29 09:01:35;;;;;;;4.27;2.40;;;;;;;;;;4991227;28;20463;-52
2021/03/29 09:04:02;;;;;;;3.80;2.20;;;;;;;;;;4991224;28;20400;-52
2021/03/29 09:06:28;;;;;;;5.23;2.53;;;;;;;;;;4990921;28;20936;-52
2021/03/29 09:08:54;;;;;;;8.43;3.10;;;;;;;;;;4995822;28;20412;-52
2021/03/29 09:11:20;;;;;;;4.13;2.40;;;;;;;;;;4995061;28;20435;-52
2021/03/29 09:13:47;;;;;;;5.60;2.40;;;;;;;;;;5006662;28;20400;-52
2021/03/29 09:16:13;;;;;;;12.07;3.10;;;;;;;;;;5002582;28;20426;-52
2021/03/29 09:18:39;;;;;;;7.80;2.30;;;;;;;;;;5006043;28;20833;-52
2021/03/29 09:21:05;;;;;;;6.47;2.80;;;;;;;;;;5010392;28;20461;-52
2021/03/29 09:23:32;;;;;;;5.17;2.90;;;;;;;;;;5004243;28;20411;-51
2021/03/29 09:26:02;;;;;;;4.67;2.23;;;;;;;;;;5009574;28;20482;-52
2021/03/29 09:28:40;;;;;;;4.97;2.47;;;;;;;;;;5009244;28;20399;-52
2021/03/29 09:31:18;;;;;;;8.57;3.10;;;;;;;;;;5009272;28;20422;-51
2021/03/29 09:33:44;;;;;;;5.90;2.60;;;;;;;;;;5009428;28;20413;-52
2021/03/29 09:36:11;;;;;;;4.60;2.30;;;;;;;;;;5009240;28;20406;-52
2021/03/29 09:38:37;;;;;;;5.47;2.80;;;;;;;;;;5009118;28;20399;-52
2021/03/29 09:41:13;;;;;;;7.23;2.57;;;;;;;;;;5009091;28;20466;-52
2021/03/29 09:43:44;;;;;;;6.40;2.80;;;;;;;;;;5010600;28;20438;-52
2021/03/29 09:46:10;;;;;;;4.50;2.77;;;;;;;;;;5010312;28;20438;-52
2021/03/29 09:48:35;;;;;;;3.87;2.67;;;;;;;;;;5010176;28;20398;-52
2021/03/29 09:51:02;;;;;;;15.43;3.10;;;;;;;;;;5010269;28;20880;-52
2021/03/29 09:53:33;;;;;;;9.50;2.70;;;;;;;;;;5010695;28;20407;-52
2021/03/29 09:56:02;;;;;;;8.33;2.40;;;;;;;;;;5012243;28;20430;-53
2021/03/29 09:58:30;;;;;;;5.67;2.70;;;;;;;;;;5013708;28;20420;-52
2021/03/29 10:01:02;;;;;;;4.30;3.00;;;;;;;;;;5013558;28;20486;-52
2021/03/29 10:03:28;;;;;;;11.43;3.87;;;;;;;;;;5013845;28;20926;-52
2021/03/29 10:05:54;;;;;;;6.37;4.03;;;;;;;;;;5013811;28;20395;-52
2021/03/29 10:08:47;;;;;;;8.43;2.90;;;;;;;;;;5012217;28;20469;-52
2021/03/29 10:11:13;;;;;;;7.87;3.03;;;;;;;;;;5010858;28;20461;-52
2021/03/29 10:13:40;;;;;;;7.90;3.27;;;;;;;;;;5013722;28;20407;-52
2021/03/29 10:16:16;;;;;;;5.43;2.70;;;;;;;;;;5013555;28;20407;-53
2021/03/29 10:18:42;;;;;;;5.77;2.80;;;;;;;;;;5013246;28;21113;-53
2021/03/29 10:21:08;;;;;;;4.97;2.40;;;;;;;;;;5013301;28;20962;-53
2021/03/29 10:23:40;;;;;;;6.73;2.70;;;;;;;;;;5013387;28;20931;-55
2021/03/29 10:26:30;;;;;;;4.67;3.00;;;;;;;;;;5013507;28;20776;-55
2021/03/29 10:29:04;;;;;;;4.03;2.80;;;;;;;;;;5013007;28;20395;-54
2021/03/29 10:31:32;;;;;;;7.40;3.10;;;;;;;;;;5013383;28;20423;-54
2021/03/29 10:33:58;;;;;;;9.13;2.60;;;;;;;;;;5013372;28;20435;-55
2021/03/29 10:36:25;;;;;;;6.53;3.07;;;;;;;;;;5013290;28;20399;-54
2021/03/29 10:38:51;;;;;;;7.33;2.90;;;;;;;;;;5011916;28;20935;-54
2021/03/29 10:41:17;;;;;;;5.10;2.73;;;;;;;;;;5013006;28;20537;-54
2021/03/29 10:43:43;;;;;;;7.43;3.17;;;;;;;;;;5012941;28;20414;-54
2021/03/29 10:46:09;;;;;;;4.50;2.47;;;;;;;;;;5012961;28;20403;-54
2021/03/29 10:48:35;;;;;;;6.43;2.73;;;;;;;;;;5012539;28;20895;-54
2021/03/29 10:51:03;;;;;;;2.77;2.13;;;;;;;;;;5012729;28;20438;-54
2021/03/29 10:53:29;;;;;;;8.20;2.90;;;;;;;;;;5012843;28;20486;-54
2021/03/29 10:55:55;;;;;;;6.93;2.67;;;;;;;;;;5012931;28;20438;-54
2021/03/29 10:58:21;;;;;;;4.83;2.33;;;;;;;;;;5012660;28;20822;-54
2021/03/29 11:00:48;;;;;;;3.40;2.40;;;;;;;;;;5012613;28;20491;-54
2021/03/29 11:03:14;;;;;;;5.63;2.43;;;;;;;;;;5012627;28;20411;-54
2021/03/29 11:05:40;;;;;;;2.43;2.23;;;;;;;;;;5012228;28;20411;-54
2021/03/29 11:08:06;;;;;;;7.00;2.40;;;;;;;;;;5011370;28;20399;-55
2021/03/29 11:10:33;;;;;;;3.63;1.87;;;;;;;;;;5012312;28;20426;-55
2021/03/29 11:12:59;;;;;;;4.03;2.20;;;;;;;;;;5012318;28;20430;-54
2021/03/29 11:15:25;;;;;;;2.60;2.20;;;;;;;;;;5012243;28;20774;-56
2021/03/29 11:17:51;;;;;;;4.93;2.00;;;;;;;;;;5012144;28;20442;-54
2021/03/29 11:20:17;;;;;;;5.27;2.23;;;;;;;;;;5012164;28;20505;-54
2021/03/29 11:22:43;;;;;;;3.93;1.90;;;;;;;;;;5012243;28;20419;-54
2021/03/29 11:25:10;;;;;;;2.50;1.70;;;;;;;;;;5012339;28;20430;-54
2021/03/29 11:27:36;;;;;;;3.53;2.20;;;;;;;;;;5011980;28;20395;-55
2021/03/29 11:30:03;;;;;;;5.03;1.77;;;;;;;;;;5012060;28;20426;-54
2021/03/29 11:32:29;;;;;;;3.50;2.03;;;;;;;;;;5010792;28;20435;-55
2021/03/29 11:34:55;;;;;;;3.57;2.20;;;;;;;;;;5011997;28;20762;-55
2021/03/29 11:37:21;;;;;;;6.07;1.97;;;;;;;;;;5011731;28;20407;-55
2021/03/29 11:39:47;;;;;;;5.43;2.00;;;;;;;;;;5010845;28;20434;-55
2021/03/29 11:42:13;;;;;;;3.63;2.00;;;;;;;;;;5003023;28;20436;-55
2021/03/29 11:44:39;;;;;;;7.70;2.03;;;;;;;;;;4992376;28;20400;-55
2021/03/29 11:47:05;;;;;;;3.80;2.20;;;;;;;;;;4992110;28;20408;-55
2021/03/29 11:49:31;;;;;;;6.43;2.10;;;;;;;;;;4991989;28;20470;-55
2021/03/29 11:51:57;;;;;;;4.70;2.30;;;;;;;;;;4991988;28;20432;-55
2021/03/29 11:54:23;;;;;;;3.80;1.87;;;;;;;;;;4992246;28;20431;-55
2021/03/29 11:56:50;;;;;;;5.80;2.07;;;;;;;;;;4992082;28;20876;-55
2021/03/29 11:59:16;;;;;;;3.93;1.80;;;;;;;;;;4991683;28;20404;-54
2021/03/29 12:01:49;;;;;;;7.43;2.07;;;;;;;;;;4991823;28;20551;-55
2021/03/29 12:04:41;;;;;;;5.80;1.87;;;;;;;;;;4991795;28;20825;-55
2021/03/29 12:07:12;;;;;;;5.07;2.03;;;;;;;;;;4992055;28;20400;-55
2021/03/29 12:11:50;;;;;;;8.03;2.10;;;;;;;;;;4996703;28;20427;-55
2021/03/29 12:12:37;;;;;;;7.17;2.47;;;;;;;;;;5011232;28;20485;-55
2021/03/29 12:15:04;;;;;;;2.30;2.07;;;;;;;;;;5011376;28;20766;-55
2021/03/29 12:17:29;;;;;;;2.43;2.00;;;;;;;;;;5010562;28;20399;-55
2021/03/29 12:19:57;;;;;;;4.53;1.90;;;;;;;;;;5010868;28;20451;-55
2021/03/29 12:22:24;;;;;;;3.43;2.03;;;;;;;;;;5011231;28;20415;-55
2021/03/29 12:24:52;;;;;;;4.20;2.03;;;;;;;;;;5006303;28;20459;-55
2021/03/29 12:27:19;;;;;;;4.27;1.80;;;;;;;;;;5009356;28;20403;-52
2021/03/29 12:29:45;;;;;;;4.17;2.10;;;;;;;;;;5011162;28;20411;-52
2021/03/29 12:32:16;;;;;;;3.03;2.00;;;;;;;;;;5011387;28;20435;-52
2021/03/29 12:34:47;;;;;;;2.60;1.80;;;;;;;;;;5011438;28;20411;-53
2021/03/29 12:37:13;;;;;;;2.73;2.07;;;;;;;;;;5011211;28;20434;-52
2021/03/29 12:40:04;;;;;;;9.50;2.10;;;;;;;;;;5010045;28;20568;-54
2021/03/29 12:42:32;;;;;;;5.40;1.77;;;;;;;;;;5010354;28;20450;-52
2021/03/29 12:44:58;;;;;;;3.40;1.90;;;;;;;;;;5010977;28;20403;-54
2021/03/29 12:47:25;;;;;;;3.93;2.03;;;;;;;;;;5010563;28;20399;-53
2021/03/29 12:49:51;;;;;;;5.17;2.70;;;;;;;;;;5010812;28;20399;-53
2021/03/29 12:52:17;;;;;;;4.30;2.20;;;;;;;;;;5010902;28;20419;-53
2021/03/29 12:54:44;;;;;;;4.53;2.60;;;;;;;;;;5010873;28;20399;-52
2021/03/29 12:57:11;;;;;;;3.90;2.20;;;;;;;;;;5011260;28;20423;-56
2021/03/29 12:59:37;;;;;;;3.73;2.30;;;;;;;;;;5010443;28;20938;-53
2021/03/29 13:02:03;;;;;;;4.70;2.23;;;;;;;;;;5010416;28;20777;-52
2021/03/29 13:09:47;;;;;;;6.57;2.27;;;;;;;;;;5009350;28;20506;-52
2021/03/29 13:12:14;;;;;;;5.57;1.93;;;;;;;;;;5010571;28;20439;-52
2021/03/29 13:14:45;;;;;;;7.30;2.23;;;;;;;;;;5010582;28;20462;-52
2021/03/29 13:17:11;;;;;;;5.40;2.30;;;;;;;;;;5010589;28;20405;-53
2021/03/29 13:19:37;;;;;;;3.97;2.07;;;;;;;;;;5010313;28;20410;-54
2021/03/29 13:22:03;;;;;;;4.27;2.10;;;;;;;;;;5010545;28;20415;-56
2021/03/29 13:24:29;;;;;;;3.53;1.90;;;;;;;;;;5010421;28;20818;-55
2021/03/29 13:26:55;;;;;;;6.33;2.40;;;;;;;;;;5009329;28;20434;-56
2021/03/29 13:29:21;;;;;;;5.43;1.83;;;;;;;;;;5011364;28;20822;-52
2021/03/29 13:31:47;;;;;;;3.33;1.87;;;;;;;;;;5014229;28;20426;-52
2021/03/29 13:34:13;;;;;;;4.77;1.93;;;;;;;;;;5014404;28;20453;-53
2021/03/29 13:36:39;;;;;;;3.10;2.10;;;;;;;;;;5014180;28;20906;-53
2021/03/29 13:39:06;;;;;;;5.33;2.53;;;;;;;;;;5013171;28;20913;-55
2021/03/29 13:41:33;;;;;;;2.73;1.87;;;;;;;;;;5013513;28;20462;-52
2021/03/29 13:44:00;;;;;;;3.70;2.30;;;;;;;;;;5014181;28;20399;-52
2021/03/29 13:46:26;;;;;;;4.30;2.23;;;;;;;;;;5014217;28;20435;-55
2021/03/29 13:48:53;;;;;;;5.43;2.20;;;;;;;;;;5013730;28;20479;-55
2021/03/29 13:51:19;;;;;;;3.53;2.17;;;;;;;;;;5013936;28;20505;-52
2021/03/29 13:53:54;;;;;;;4.07;2.37;;;;;;;;;;5013822;28;20403;-56
2021/03/29 13:56:21;;;;;;;6.90;2.33;;;;;;;;;;5013831;28;20908;-56
2021/03/29 13:58:47;;;;;;;4.03;2.63;;;;;;;;;;5013521;28;20403;-54
2021/03/29 14:01:16;;;;;;;3.43;1.80;;;;;;;;;;5013632;28;20461;-52
2021/03/29 14:03:46;;;;;;;5.90;2.17;;;;;;;;;;5013695;28;20396;-52
2021/03/29 14:06:12;;;;;;;3.93;1.90;;;;;;;;;;5013764;28;20486;-52
2021/03/29 14:08:38;;;;;;;4.30;1.83;;;;;;;;;;5013147;28;20487;-52
2021/03/29 14:11:05;;;;;;;4.47;2.07;;;;;;;;;;5012514;28;20471;-52
2021/03/29 14:13:31;;;;;;;3.30;2.27;;;;;;;;;;5013395;28;20423;-52
2021/03/29 14:15:57;;;;;;;5.27;2.10;;;;;;;;;;5013591;28;20418;-52
2021/03/29 14:18:23;;;;;;;9.90;2.23;;;;;;;;;;5013268;28;20774;-52
2021/03/29 14:20:49;;;;;;;4.07;2.20;;;;;;;;;;5013295;28;20469;-56
2021/03/29 14:23:15;;;;;;;5.10;2.30;;;;;;;;;;5013270;28;20391;-52
2021/03/29 14:25:42;;;;;;;3.10;2.00;;;;;;;;;;5013183;28;20399;-52
2021/03/29 14:28:08;;;;;;;2.40;2.03;;;;;;;;;;5013144;28;20902;-54
2021/03/29 14:30:34;;;;;;;3.87;2.20;;;;;;;;;;5013406;28;20483;-51
2021/03/29 14:33:01;;;;;;;3.83;2.00;;;;;;;;;;5013493;28;20447;-52
2021/03/29 14:43:07;;;;;;;11.37;2.30;;;;;;;;;;5013094;28;20442;-52
2021/03/29 14:45:33;;;;;;;6.37;2.73;;;;;;;;;;5013120;28;20406;-52
2021/03/29 14:47:59;;;;;;;2.60;2.20;;;;;;;;;;5011967;28;20431;-52
2021/03/29 14:50:25;;;;;;;5.13;2.50;;;;;;;;;;5012827;28;20407;-52
2021/03/29 14:52:51;;;;;;;7.47;2.67;;;;;;;;;;5012801;28;20422;-52
2021/03/29 14:55:18;;;;;;;3.30;2.10;;;;;;;;;;5012886;28;20395;-52
2021/03/29 14:57:44;;;;;;;9.23;2.30;;;;;;;;;;5012526;28;20404;-52
2021/03/29 15:00:11;;;;;;;5.60;2.20;;;;;;;;;;5012643;28;20458;-52